Time;durP1;ratioP1;P1;durP2;ratioP2;P2;SDS_P1;SDS_P2;PMS_P1;PMS_P2;Temp;Humidity;BMP_temperature;BMP_pressure;BME280_temperature;BME280_humidity;BME280_pressure;Samples;Min_cycle;Max_cycle;Signal;HPM_P1;HPM_P2
2023/08/18 00:00:35;;;;;;;;;;;22.80;62.20;;;;;;6068012;23;20392;-62
2023/08/18 00:03:01;;;;;;;2.05;1.38;;;22.80;61.60;;;;;;6068299;23;19913;-62
2023/08/18 00:05:27;;;;;;;1.35;0.95;;;22.70;61.30;;;;;;6067398;23;20023;-62
2023/08/18 00:07:53;;;;;;;;;;;22.70;62.30;;;;;;6069038;23;20022;-62
2023/08/18 00:10:19;;;;;;;4.50;0.70;;;22.70;62.50;;;;;;6067572;23;20350;-62
2023/08/18 00:12:45;;;;;;;;;;;22.70;62.80;;;;;;6069058;23;20341;-62
2023/08/18 00:15:11;;;;;;;0.60;0.45;;;22.70;62.30;;;;;;6042027;23;19998;-62
2023/08/18 00:17:37;;;;;;;0.30;0.30;;;22.70;62.40;;;;;;6068177;23;20447;-62
2023/08/18 00:20:03;;;;;;;;;;;22.70;62.60;;;;;;6068320;23;20019;-62
2023/08/18 00:22:30;;;;;;;1.38;0.98;;;22.60;62.20;;;;;;6067971;23;19961;-61
2023/08/18 00:24:56;;;;;;;0.30;0.30;;;22.70;62.40;;;;;;6066303;23;20022;-62
2023/08/18 00:27:22;;;;;;;;;;;22.70;62.40;;;;;;6068009;23;20413;-62
2023/08/18 00:29:48;;;;;;;1.30;1.05;;;22.70;62.30;;;;;;6042324;23;19914;-62
2023/08/18 00:32:14;;;;;;;1.65;0.85;;;22.60;62.20;;;;;;6065928;23;20341;-62
2023/08/18 00:34:40;;;;;;;;;;;22.50;62.40;;;;;;6068097;23;20014;-62
2023/08/18 00:37:06;;;;;;;0.68;0.60;;;22.40;62.50;;;;;;6067642;23;19999;-62
2023/08/18 00:39:32;;;;;;;;;;;22.30;62.90;;;;;;6068371;23;20062;-62
2023/08/18 00:41:58;;;;;;;1.25;1.00;;;22.20;63.00;;;;;;6067417;23;19917;-62
2023/08/18 00:44:24;;;;;;;;;;;22.10;63.40;;;;;;6068129;23;20018;-62
2023/08/18 00:46:50;;;;;;;0.95;0.60;;;22.10;63.10;;;;;;6066969;23;19917;-62
2023/08/18 00:49:18;;;;;;;1.75;0.88;;;22.10;62.30;;;;;;6067436;23;20353;-62
2023/08/18 00:51:45;;;;;;;1.02;0.52;;;22.10;63.30;;;;;;6066995;23;20058;-62
2023/08/18 00:54:12;;;;;;;0.63;0.40;;;22.10;62.60;;;;;;6067441;23;20015;-62
2023/08/18 00:56:39;;;;;;;1.10;0.70;;;22.10;63.10;;;;;;6041238;23;20046;-62
2023/08/18 00:59:06;;;;;;;0.68;0.68;;;22.20;62.90;;;;;;6018424;23;20397;-62
2023/08/18 01:01:34;;;;;;;0.93;0.50;;;22.20;63.00;;;;;;6066821;23;20021;-62
2023/08/18 01:04:01;;;;;;;1.20;0.52;;;22.20;63.20;;;;;;6041990;23;20353;-62
2023/08/18 01:06:27;;;;;;;1.27;0.88;;;22.20;63.30;;;;;;6067015;23;20378;-62
2023/08/18 01:08:53;;;;;;;;;;;22.10;63.60;;;;;;6066489;23;20019;-61
2023/08/18 01:12:15;;;;;;;0.65;0.65;;;22.10;63.30;;;;;;6041415;23;19913;-61
2023/08/18 01:15:18;;;;;;;1.10;0.73;;;22.10;63.60;;;;;;6067291;23;20023;-62
2023/08/18 01:18:04;;;;;;;0.88;0.68;;;22.10;64.10;;;;;;6067857;23;20023;-61
2023/08/18 01:20:32;;;;;;;2.00;1.13;;;22.10;64.20;;;;;;6036176;23;20079;-62
2023/08/18 01:23:01;;;;;;;1.08;0.80;;;22.10;64.30;;;;;;6038758;23;20043;-62
2023/08/18 01:25:27;;;;;;;1.40;0.85;;;22.00;64.20;;;;;;6036361;23;20015;-61
2023/08/18 01:27:56;;;;;;;1.90;1.15;;;21.90;63.70;;;;;;6037075;23;20050;-62
2023/08/18 01:30:46;;;;;;;1.55;0.90;;;21.90;64.30;;;;;;6037943;23;20449;-62
2023/08/18 01:33:36;;;;;;;0.82;0.70;;;21.80;64.50;;;;;;6037003;23;20022;-61
2023/08/18 01:36:22;;;;;;;1.20;1.10;;;21.70;64.70;;;;;;6037956;23;20441;-62
2023/08/18 01:38:51;;;;;;;2.65;1.75;;;21.70;64.80;;;;;;6036993;23;20065;-61
2023/08/18 01:41:36;;;;;;;0.47;0.47;;;21.80;64.60;;;;;;6037806;23;20015;-61
2023/08/18 01:44:05;;;;;;;0.70;0.50;;;21.80;64.50;;;;;;6036848;23;20041;-61
2023/08/18 01:46:31;;;;;;;1.48;0.98;;;21.80;64.40;;;;;;6037939;23;20015;-61
2023/08/18 01:48:57;;;;;;;0.25;0.20;;;21.80;64.50;;;;;;6038403;23;20019;-61
2023/08/18 01:51:23;;;;;;;;;;;21.80;64.30;;;;;;6036669;23;20015;-61
2023/08/18 01:53:49;;;;;;;0.95;0.88;;;21.80;64.20;;;;;;6038628;23;19913;-61
2023/08/18 01:56:15;;;;;;;;;;;21.70;64.50;;;;;;6038202;23;20090;-61
2023/08/18 01:58:41;;;;;;;3.50;0.80;;;21.70;64.60;;;;;;6038678;23;19941;-61
2023/08/18 02:01:08;;;;;;;2.05;1.13;;;21.60;64.30;;;;;;6037671;23;20019;-61
2023/08/18 02:03:33;;;;;;;0.82;0.65;;;21.60;64.50;;;;;;6038089;23;20030;-61
2023/08/18 02:06:00;;;;;;;;;;;21.50;64.50;;;;;;6036600;23;20019;-61
2023/08/18 02:08:26;;;;;;;0.45;0.30;;;21.50;64.30;;;;;;6036586;23;19914;-61
2023/08/18 02:10:52;;;;;;;;;;;21.50;64.40;;;;;;6038111;23;20019;-61
2023/08/18 02:13:18;;;;;;;1.40;1.08;;;21.40;64.20;;;;;;6036339;23;19913;-61
2023/08/18 02:16:03;;;;;;;;;;;21.30;64.70;;;;;;6038152;23;20021;-61
2023/08/18 02:18:30;;;;;;;0.95;0.60;;;21.20;64.80;;;;;;6038127;23;20355;-61
2023/08/18 02:20:58;;;;;;;0.52;0.52;;;21.30;65.00;;;;;;6051990;23;20086;-61
2023/08/18 02:23:24;;;;;;;0.85;0.68;;;21.20;64.90;;;;;;6065195;23;20393;-61
2023/08/18 02:25:50;;;;;;;1.27;0.50;;;21.30;65.20;;;;;;6064737;23;20421;-61
2023/08/18 02:28:20;;;;;;;0.85;0.57;;;21.30;64.90;;;;;;6064805;23;20015;-61
2023/08/18 02:30:46;;;;;;;0.90;0.65;;;21.40;65.00;;;;;;6041412;23;20021;-61
2023/08/18 02:33:11;;;;;;;;;;;21.40;65.00;;;;;;6067253;23;20015;-61
2023/08/18 02:35:37;;;;;;;2.15;0.82;;;21.50;64.70;;;;;;6065867;23;20330;-61
2023/08/18 02:38:03;;;;;;;;;;;21.50;64.70;;;;;;6067083;23;20049;-61
2023/08/18 02:40:29;;;;;;;1.13;0.52;;;21.60;63.90;;;;;;6040615;23;19913;-62
2023/08/18 02:42:55;;;;;;;0.98;0.70;;;21.60;64.60;;;;;;6066584;23;20019;-61
2023/08/18 02:45:22;;;;;;;;;;;21.60;64.60;;;;;;6066490;23;20015;-62
2023/08/18 02:47:48;;;;;;;0.90;0.60;;;21.60;64.70;;;;;;6041496;23;19913;-61
2023/08/18 02:50:14;;;;;;;;;;;21.60;64.70;;;;;;6066335;23;20026;-61
2023/08/18 02:52:40;;;;;;;2.97;1.83;;;21.60;64.60;;;;;;6067081;23;19913;-61
2023/08/18 02:55:06;;;;;;;;;;;21.60;64.70;;;;;;6066866;23;20333;-61
2023/08/18 02:57:32;;;;;;;2.90;2.00;;;21.60;64.30;;;;;;6041125;23;19920;-61
2023/08/18 02:59:58;;;;;;;;;;;21.50;65.10;;;;;;6067055;23;20337;-61
2023/08/18 03:02:24;;;;;;;1.95;0.82;;;21.50;65.40;;;;;;6066214;23;19913;-62
2023/08/18 03:04:49;;;;;;;;;;;21.40;65.40;;;;;;6065594;23;20073;-62
2023/08/18 03:07:15;;;;;;;0.73;0.50;;;21.40;65.50;;;;;;6066191;23;20336;-61
2023/08/18 03:09:42;;;;;;;;;;;21.40;65.40;;;;;;6066892;23;20097;-61
2023/08/18 03:12:08;;;;;;;0.63;0.50;;;21.30;65.40;;;;;;6040737;23;19910;-61
2023/08/18 03:14:34;;;;;;;;;;;21.40;65.30;;;;;;6065526;23;20019;-61
2023/08/18 03:17:00;;;;;;;0.57;0.25;;;21.40;65.30;;;;;;6040596;23;19933;-62
2023/08/18 03:19:26;;;;;;;;;;;21.40;65.10;;;;;;6065465;23;20082;-61
2023/08/18 03:21:52;;;;;;;1.03;0.37;;;21.40;65.10;;;;;;6065916;23;19924;-61
2023/08/18 03:24:18;;;;;;;0.45;0.40;;;21.30;65.10;;;;;;6065450;23;20015;-61
2023/08/18 03:26:44;;;;;;;;;;;21.40;65.30;;;;;;6068642;23;20015;-61
2023/08/18 03:29:10;;;;;;;1.20;0.60;;;21.40;65.40;;;;;;6068133;23;20251;-61
2023/08/18 03:31:36;;;;;;;1.67;1.02;;;21.30;65.40;;;;;;6067914;23;20027;-61
2023/08/18 03:34:02;;;;;;;;;;;21.30;65.70;;;;;;6067550;23;20070;-61
2023/08/18 03:36:28;;;;;;;0.90;0.60;;;21.30;65.70;;;;;;6042345;23;20375;-62
2023/08/18 03:38:54;;;;;;;;;;;21.20;65.60;;;;;;6068937;23;20326;-61
2023/08/18 03:41:21;;;;;;;0.38;0.32;;;21.00;66.00;;;;;;6067281;23;19940;-61
2023/08/18 03:43:47;;;;;;;1.17;0.85;;;21.00;66.00;;;;;;6066752;23;20046;-61
2023/08/18 03:46:32;;;;;;;;;;;21.00;66.10;;;;;;6068228;23;20369;-61
2023/08/18 03:48:58;;;;;;;0.65;0.43;;;21.00;65.70;;;;;;6068100;23;19925;-61
2023/08/18 03:51:23;;;;;;;;;;;21.10;66.10;;;;;;6067982;23;20015;-61
2023/08/18 03:53:50;;;;;;;1.60;0.60;;;21.00;66.00;;;;;;6042726;23;19949;-61
2023/08/18 03:56:15;;;;;;;;;;;21.00;65.90;;;;;;6068188;23;20015;-61
2023/08/18 03:58:41;;;;;;;0.38;0.35;;;21.00;65.90;;;;;;6042506;23;20269;-61
2023/08/18 04:01:08;;;;;;;;;;;20.90;65.80;;;;;;6068023;23;20015;-61
2023/08/18 04:03:36;;;;;;;1.40;1.20;;;21.00;65.70;;;;;;6042807;23;19914;-61
2023/08/18 04:06:03;;;;;;;5.35;1.65;;;20.90;65.80;;;;;;6067402;23;20015;-61
2023/08/18 04:08:33;;;;;;;0.90;0.68;;;21.00;65.40;;;;;;6042198;23;20353;-61
2023/08/18 04:10:59;;;;;;;0.82;0.50;;;20.90;66.20;;;;;;6041919;23;20049;-61
2023/08/18 04:13:25;;;;;;;;;;;20.90;66.30;;;;;;6067098;23;20015;-61
2023/08/18 04:15:51;;;;;;;0.98;0.47;;;20.90;66.00;;;;;;6067315;23;20360;-61
2023/08/18 04:18:18;;;;;;;0.93;0.80;;;20.90;66.10;;;;;;6067699;23;20019;-61
2023/08/18 04:20:44;;;;;;;0.90;0.60;;;21.00;66.10;;;;;;6066759;23;20098;-61
2023/08/18 04:23:10;;;;;;;;;;;21.00;65.90;;;;;;6068479;23;20319;-62
2023/08/18 04:25:36;;;;;;;0.30;0.30;;;21.00;65.80;;;;;;6067267;23;19913;-61
2023/08/18 04:28:02;;;;;;;0.77;0.40;;;21.00;65.90;;;;;;6067550;23;20022;-61
2023/08/18 04:30:29;;;;;;;1.05;0.40;;;21.00;66.20;;;;;;6065742;23;20011;-61
2023/08/18 04:32:54;;;;;;;;;;;21.00;66.40;;;;;;6067136;23;20011;-61
2023/08/18 04:35:20;;;;;;;1.15;0.95;;;21.00;66.40;;;;;;6066849;23;20380;-61
2023/08/18 04:37:46;;;;;;;1.95;0.85;;;21.00;66.20;;;;;;6066318;23;20014;-61
2023/08/18 04:40:12;;;;;;;2.38;1.10;;;21.10;66.20;;;;;;6067021;23;20026;-62
2023/08/18 04:42:38;;;;;;;;;;;21.10;66.20;;;;;;6068065;23;20015;-61
2023/08/18 04:45:05;;;;;;;2.47;1.50;;;21.20;66.10;;;;;;6041777;23;19972;-61
2023/08/18 04:47:31;;;;;;;0.93;0.60;;;21.20;65.90;;;;;;6041777;23;20017;-61
2023/08/18 04:49:57;;;;;;;;;;;21.30;66.20;;;;;;6066557;23;20019;-61
2023/08/18 04:52:23;;;;;;;1.90;1.15;;;21.40;66.30;;;;;;6041674;23;19974;-61
2023/08/18 04:54:49;;;;;;;1.17;1.08;;;21.50;66.20;;;;;;6067529;23;20100;-61
2023/08/18 04:57:15;;;;;;;;;;;21.50;66.20;;;;;;6067930;23;20011;-62
2023/08/18 04:59:41;;;;;;;1.02;0.68;;;21.60;66.00;;;;;;6067508;23;19956;-61
2023/08/18 05:02:07;;;;;;;;;;;21.70;66.00;;;;;;6067921;23;20011;-62
2023/08/18 05:04:34;;;;;;;2.20;0.90;;;21.80;66.10;;;;;;6041768;23;19952;-61
2023/08/18 05:07:00;;;;;;;2.08;0.77;;;21.80;66.20;;;;;;6066873;23;20010;-61
2023/08/18 05:09:25;;;;;;;;;;;21.90;66.30;;;;;;6066377;23;20019;-61
2023/08/18 05:11:51;;;;;;;1.05;0.70;;;22.00;66.10;;;;;;6066751;23;19941;-61
2023/08/18 05:14:17;;;;;;;;;;;22.00;66.70;;;;;;6042417;23;20352;-61
2023/08/18 05:16:43;;;;;;;1.08;0.68;;;22.00;66.70;;;;;;6066818;23;19955;-61
2023/08/18 05:19:09;;;;;;;;;;;21.90;67.50;;;;;;6066528;23;20066;-61
2023/08/18 05:21:35;;;;;;;3.83;1.23;;;22.00;67.50;;;;;;6066450;23;19914;-61
2023/08/18 05:24:01;;;;;;;;;;;22.00;68.10;;;;;;6042349;23;20029;-61
2023/08/18 05:26:27;;;;;;;2.15;1.50;;;22.00;68.00;;;;;;6041261;23;20362;-62
2023/08/18 05:28:53;;;;;;;;;;;22.00;68.10;;;;;;6066290;23;20026;-61
2023/08/18 05:31:19;;;;;;;1.60;1.05;;;22.10;68.00;;;;;;6066491;23;19971;-62
2023/08/18 05:33:45;;;;;;;;;;;22.10;68.60;;;;;;6067893;23;20034;-61
2023/08/18 05:36:11;;;;;;;1.75;1.50;;;22.10;68.30;;;;;;6066517;23;19953;-62
2023/08/18 05:38:36;;;;;;;;;;;22.10;69.00;;;;;;6067532;23;20023;-61
2023/08/18 05:41:21;;;;;;;1.85;1.15;;;22.10;69.00;;;;;;6066370;23;20004;-62
2023/08/18 05:43:47;;;;;;;2.30;1.23;;;22.10;69.20;;;;;;6066979;23;20019;-61
2023/08/18 05:46:13;;;;;;;;;;;22.00;69.10;;;;;;6066872;23;20029;-61
2023/08/18 05:48:39;;;;;;;1.85;0.88;;;22.10;68.90;;;;;;6066797;23;19941;-61
2023/08/18 05:51:05;;;;;;;;;;;22.10;69.60;;;;;;6065371;23;20073;-61
2023/08/18 05:53:31;;;;;;;2.10;1.33;;;22.10;69.60;;;;;;6066855;23;20260;-61
2023/08/18 05:55:57;;;;;;;0.90;0.57;;;22.20;69.70;;;;;;6066264;23;20010;-61
2023/08/18 05:58:23;;;;;;;1.48;1.20;;;22.20;69.70;;;;;;6065518;23;20067;-61
2023/08/18 06:00:50;;;;;;;;;;;22.30;69.70;;;;;;6041477;23;20018;-61
2023/08/18 06:03:19;;;;;;;0.85;0.77;;;22.40;68.50;;;;;;6041566;23;19914;-61
2023/08/18 06:06:04;;;;;;;2.75;0.82;;;22.50;69.20;;;;;;6041513;23;20011;-61
2023/08/18 06:08:30;;;;;;;1.75;0.90;;;22.50;69.30;;;;;;6066630;23;20062;-62
2023/08/18 06:10:56;;;;;;;;;;;22.60;70.00;;;;;;6066631;23;20019;-61
2023/08/18 06:13:22;;;;;;;2.08;1.25;;;22.60;69.40;;;;;;6066715;23;19913;-61
2023/08/18 06:15:52;;;;;;;;;;;22.80;69.80;;;;;;6066875;23;20382;-61
2023/08/18 06:18:18;;;;;;;2.25;1.35;;;22.90;69.60;;;;;;6067306;23;20243;-62
2023/08/18 06:20:46;;;;;;;0.88;0.63;;;23.00;69.40;;;;;;6035575;23;20083;-61
2023/08/18 06:23:12;;;;;;;1.98;1.48;;;23.30;69.10;;;;;;6038032;23;20019;-62
2023/08/18 06:25:38;;;;;;;;;;;23.30;69.20;;;;;;6036808;23;20111;-61
2023/08/18 06:28:06;;;;;;;3.28;1.25;;;23.50;68.80;;;;;;6035782;23;19924;-61
2023/08/18 06:30:32;;;;;;;2.30;1.38;;;23.70;67.30;;;;;;6037295;23;20007;-61
2023/08/18 06:32:58;;;;;;;;;;;23.90;67.80;;;;;;6038666;23;20453;-62
2023/08/18 06:35:24;;;;;;;1.90;1.08;;;24.00;67.80;;;;;;6035877;23;19914;-62
2023/08/18 06:37:50;;;;;;;1.63;1.05;;;24.10;66.90;;;;;;6038442;23;20019;-61
2023/08/18 06:40:16;;;;;;;;;;;24.20;66.70;;;;;;6037923;23;20023;-61
2023/08/18 06:42:42;;;;;;;3.22;1.33;;;24.20;67.10;;;;;;6038389;23;19910;-62
2023/08/18 06:45:08;;;;;;;;;;;24.30;66.20;;;;;;6037814;23;20019;-62
2023/08/18 06:47:34;;;;;;;1.25;0.95;;;24.30;66.00;;;;;;6012445;23;19997;-62
2023/08/18 06:50:00;;;;;;;;;;;24.40;66.00;;;;;;6038118;23;20447;-62
2023/08/18 06:52:28;;;;;;;1.77;0.93;;;24.50;66.20;;;;;;6037772;23;19909;-62
2023/08/18 06:54:54;;;;;;;1.45;1.23;;;24.60;65.00;;;;;;6037664;23;20410;-62
2023/08/18 06:57:20;;;;;;;;;;;24.70;64.90;;;;;;6038415;23;20074;-63
2023/08/18 06:59:46;;;;;;;1.10;0.73;;;24.80;65.20;;;;;;6037770;23;19922;-62
2023/08/18 07:02:12;;;;;;;2.42;1.38;;;25.00;64.30;;;;;;6035831;23;20444;-62
2023/08/18 07:04:38;;;;;;;;;;;25.20;63.70;;;;;;6038298;23;20071;-62
2023/08/18 07:07:04;;;;;;;2.28;1.42;;;25.40;63.80;;;;;;6037629;23;19910;-62
2023/08/18 07:09:30;;;;;;;2.08;0.90;;;25.60;62.40;;;;;;6037828;23;20437;-62
2023/08/18 07:11:56;;;;;;;1.13;0.70;;;25.90;61.90;;;;;;6037445;23;20063;-62
2023/08/18 07:14:22;;;;;;;2.38;1.45;;;26.10;61.40;;;;;;6036262;23;20472;-62
2023/08/18 07:16:49;;;;;;;2.80;1.80;;;26.40;60.80;;;;;;6037612;23;20011;-66
2023/08/18 07:19:15;;;;;;;1.08;0.80;;;26.70;60.00;;;;;;6036220;23;20023;-63
2023/08/18 07:21:41;;;;;;;3.15;2.05;;;27.00;59.60;;;;;;6060649;23;20019;-64
2023/08/18 07:24:07;;;;;;;1.55;1.40;;;27.40;59.00;;;;;;6066257;23;20042;-64
2023/08/18 07:26:33;;;;;;;3.22;1.27;;;27.70;58.20;;;;;;6065852;23;20463;-65
2023/08/18 07:28:59;;;;;;;2.67;1.45;;;28.10;57.80;;;;;;6040711;23;20014;-65
2023/08/18 07:31:25;;;;;;;1.50;0.98;;;28.40;57.00;;;;;;6065877;23;20022;-64
2023/08/18 07:33:52;;;;;;;2.50;0.95;;;28.70;56.20;;;;;;6066341;23;20011;-65
2023/08/18 07:36:18;;;;;;;2.90;1.60;;;29.10;56.00;;;;;;6065762;23;20018;-64
2023/08/18 07:38:45;;;;;;;2.22;1.55;;;29.50;55.00;;;;;;6066507;23;20480;-65
2023/08/18 07:41:11;;;;;;;1.60;0.90;;;29.80;53.80;;;;;;6064192;23;20367;-65
2023/08/18 07:43:37;;;;;;;3.92;2.42;;;30.20;53.10;;;;;;6066283;23;20019;-65
2023/08/18 07:46:03;;;;;;;1.90;1.20;;;30.50;52.30;;;;;;6065945;23;20447;-65
2023/08/18 07:48:29;;;;;;;0.95;0.80;;;30.80;51.10;;;;;;6066598;23;20410;-64
2023/08/18 07:50:56;;;;;;;1.70;1.30;;;31.20;50.50;;;;;;6065530;23;20282;-65
2023/08/18 07:53:22;;;;;;;1.05;0.85;;;31.50;48.70;;;;;;6066027;23;20468;-66
2023/08/18 07:55:48;;;;;;;1.17;0.90;;;32.00;49.50;;;;;;6064261;23;20011;-65
2023/08/18 07:58:14;;;;;;;3.00;1.42;;;32.40;46.90;;;;;;6066159;23;20026;-66
2023/08/18 08:00:41;;;;;;;2.28;0.93;;;32.80;45.50;;;;;;6039993;23;20445;-67
2023/08/18 08:03:07;;;;;;;1.42;1.10;;;33.20;44.90;;;;;;6066192;23;20019;-67
2023/08/18 08:05:33;;;;;;;1.27;0.75;;;33.60;43.20;;;;;;6065377;23;20011;-68
2023/08/18 08:07:59;;;;;;;1.73;1.27;;;34.00;42.40;;;;;;6065984;23;20019;-67
2023/08/18 08:10:25;;;;;;;2.72;1.33;;;34.40;41.40;;;;;;6066559;23;20018;-68
2023/08/18 08:12:51;;;;;;;1.60;1.33;;;34.90;39.60;;;;;;6066358;23;20067;-69
2023/08/18 08:15:17;;;;;;;2.67;1.10;;;35.50;38.90;;;;;;6065797;23;20018;-69
2023/08/18 08:17:43;;;;;;;2.97;2.10;;;35.90;38.10;;;;;;6068230;23;20315;-69
2023/08/18 08:20:17;;;;;;;2.20;1.00;;;36.30;36.40;;;;;;6066926;23;20081;-70
2023/08/18 08:22:46;;;;;;;1.98;1.08;;;36.60;34.80;;;;;;6068483;23;20422;-69
2023/08/18 08:25:12;;;;;;;7.45;2.13;;;37.10;35.10;;;;;;6067323;23;20341;-67
2023/08/18 08:27:39;;;;;;;1.75;1.42;;;37.60;33.00;;;;;;6042612;23;20053;-70
2023/08/18 08:30:08;;;;;;;1.48;1.20;;;37.60;30.70;;;;;;6042222;23;20011;-69
2023/08/18 08:32:35;;;;;;;0.80;0.70;;;38.10;32.00;;;;;;6042639;23;20118;-67
2023/08/18 08:35:01;;;;;;;1.95;1.50;;;38.50;31.30;;;;;;6067782;23;20512;-67
2023/08/18 08:37:27;;;;;;;3.28;1.38;;;39.00;30.60;;;;;;6065954;23;20007;-68
2023/08/18 08:39:53;;;;;;;0.93;0.82;;;39.30;29.90;;;;;;6066182;23;20038;-69
2023/08/18 08:42:19;;;;;;;0.77;0.73;;;39.90;29.10;;;;;;6066908;23;20038;-66
2023/08/18 08:44:45;;;;;;;1.48;1.25;;;40.20;28.60;;;;;;6066084;23;20030;-67
2023/08/18 08:47:11;;;;;;;0.95;0.88;;;40.70;27.90;;;;;;6065711;23;20011;-67
2023/08/18 08:49:43;;;;;;;3.40;1.20;;;41.20;27.40;;;;;;6041829;23;20050;-69
2023/08/18 08:52:13;;;;;;;1.70;1.10;;;41.50;26.40;;;;;;6065840;23;20011;-67
2023/08/18 08:55:08;;;;;;;1.00;0.90;;;42.00;26.20;;;;;;6042599;23;20019;-67
2023/08/18 08:57:35;;;;;;;0.88;0.85;;;42.40;25.50;;;;;;6067998;23;20015;-69
2023/08/18 09:00:02;;;;;;;3.20;1.75;;;43.00;25.20;;;;;;6065967;23;20026;-67
2023/08/18 09:02:28;;;;;;;3.50;1.65;;;43.50;24.50;;;;;;6041888;23;20006;-69
2023/08/18 09:05:00;;;;;;;1.35;1.25;;;44.20;24.40;;;;;;6067418;23;20018;-67
2023/08/18 09:07:28;;;;;;;2.50;1.98;;;44.10;23.60;;;;;;6067322;23;20042;-67
2023/08/18 09:09:54;;;;;;;1.88;1.33;;;43.90;23.50;;;;;;6041766;23;20426;-67
2023/08/18 09:12:29;;;;;;;1.73;1.27;;;43.20;24.30;;;;;;6065638;23;20429;-69
2023/08/18 09:14:56;;;;;;;1.63;1.10;;;42.60;24.10;;;;;;6018970;23;20443;-68
2023/08/18 09:17:22;;;;;;;1.60;1.48;;;41.90;24.80;;;;;;6067026;23;20014;-68
2023/08/18 09:20:07;;;;;;;1.70;1.23;;;41.50;25.20;;;;;;6064920;23;20107;-67
2023/08/18 09:22:35;;;;;;;2.53;1.92;;;41.40;25.40;;;;;;6067577;23;20082;-69
2023/08/18 09:25:01;;;;;;;1.58;1.17;;;41.30;25.70;;;;;;6067470;23;20018;-69
2023/08/18 09:27:29;;;;;;;1.95;1.10;;;40.90;25.60;;;;;;6065564;23;20121;-68
2023/08/18 09:29:58;;;;;;;1.60;1.27;;;40.90;25.90;;;;;;6067223;23;20030;-69
2023/08/18 09:32:24;;;;;;;1.30;1.00;;;40.80;26.20;;;;;;6067203;23;20019;-69
2023/08/18 09:34:51;;;;;;;1.17;1.00;;;41.00;26.10;;;;;;6065786;23;20407;-67
2023/08/18 09:37:17;;;;;;;1.05;0.88;;;40.70;26.00;;;;;;6041164;23;20015;-69
2023/08/18 09:39:43;;;;;;;1.45;1.17;;;41.10;26.40;;;;;;6067004;23;20033;-68
2023/08/18 09:42:10;;;;;;;2.28;1.20;;;41.90;25.50;;;;;;6065216;23;20010;-68
2023/08/18 09:44:36;;;;;;;1.50;1.20;;;41.50;25.20;;;;;;6065504;23;20022;-68
2023/08/18 09:47:05;;;;;;;2.75;1.70;;;41.30;25.40;;;;;;6065314;23;20015;-67
2023/08/18 09:49:37;;;;;;;2.28;1.30;;;42.50;24.70;;;;;;6066762;23;20015;-67
2023/08/18 09:52:06;;;;;;;3.67;1.17;;;43.70;23.70;;;;;;6065102;23;20485;-68
2023/08/18 09:54:45;;;;;;;2.30;1.60;;;44.80;22.40;;;;;;6065340;23;20014;-67
2023/08/18 09:57:25;;;;;;;2.38;1.67;;;45.80;21.00;;;;;;6066782;23;20452;-67
2023/08/18 10:00:12;;;;;;;2.72;1.55;;;46.50;20.40;;;;;;6065634;23;20547;-67
2023/08/18 10:02:43;;;;;;;1.73;1.17;;;47.20;20.00;;;;;;6041706;23;20403;-69
2023/08/18 10:05:10;;;;;;;1.85;1.67;;;48.10;19.40;;;;;;6064957;23;20038;-67
2023/08/18 10:07:37;;;;;;;1.77;1.42;;;48.80;18.30;;;;;;6041472;23;20019;-67
2023/08/18 10:10:03;;;;;;;1.85;1.65;;;49.20;18.40;;;;;;6065094;23;20014;-67
2023/08/18 10:12:29;;;;;;;3.08;2.17;;;49.80;17.90;;;;;;6065039;23;20015;-69
2023/08/18 10:14:56;;;;;;;2.10;1.52;;;50.30;17.00;;;;;;6066694;23;20074;-68
2023/08/18 10:17:24;;;;;;;2.00;1.73;;;50.80;16.80;;;;;;6040848;23;20333;-67
2023/08/18 10:20:00;;;;;;;1.60;1.50;;;51.40;16.20;;;;;;6040866;23;20378;-69
2023/08/18 10:22:29;;;;;;;2.97;2.67;;;51.80;15.50;;;;;;6064918;23;20018;-69
2023/08/18 10:24:56;;;;;;;2.88;2.28;;;51.90;15.30;;;;;;6041541;23;20350;-67
2023/08/18 10:27:41;;;;;;;3.33;1.80;;;52.30;15.30;;;;;;6064885;23;20021;-68
2023/08/18 10:30:10;;;;;;;;;;;52.60;14.90;;;;;;6065537;23;20344;-68
2023/08/18 10:32:36;;;;;;;2.25;2.05;;;53.00;14.80;;;;;;6066882;23;20240;-67
2023/08/18 10:35:24;;;;;;;2.53;2.30;;;53.30;14.70;;;;;;6041062;23;20436;-69
2023/08/18 10:37:51;;;;;;;2.25;2.05;;;53.60;13.80;;;;;;6041611;23;20011;-69
2023/08/18 10:40:38;;;;;;;3.50;2.80;;;53.80;14.00;;;;;;6040619;23;20022;-67
2023/08/18 10:43:24;;;;;;;4.03;2.67;;;54.30;13.60;;;;;;6041158;23;20019;-69
2023/08/18 10:45:56;;;;;;;3.22;2.92;;;54.50;13.70;;;;;;6066022;23;20023;-67
2023/08/18 10:48:22;;;;;;;2.88;2.58;;;54.70;13.20;;;;;;6066874;23;20322;-68
2023/08/18 10:50:48;;;;;;;3.17;2.88;;;55.20;13.00;;;;;;6065868;23;20061;-68
2023/08/18 10:53:16;;;;;;;3.65;3.35;;;55.30;12.90;;;;;;6040898;23;20021;-68
2023/08/18 10:55:43;;;;;;;3.50;3.15;;;55.70;12.00;;;;;;6065883;23;20459;-69
2023/08/18 10:58:09;;;;;;;3.33;2.63;;;55.00;12.70;;;;;;6041165;23;20011;-69
2023/08/18 11:00:36;;;;;;;2.83;2.33;;;53.10;13.70;;;;;;6065690;23;20594;-69
2023/08/18 11:03:03;;;;;;;3.50;2.70;;;51.20;14.60;;;;;;6040882;23;20022;-68
2023/08/18 11:05:31;;;;;;;3.15;2.78;;;49.90;15.20;;;;;;6064338;23;20050;-67
2023/08/18 11:07:59;;;;;;;2.28;2.03;;;49.80;15.30;;;;;;6041186;23;20448;-68
2023/08/18 11:10:26;;;;;;;2.78;2.30;;;50.10;15.10;;;;;;6064192;23;20081;-69
2023/08/18 11:12:56;;;;;;;2.55;2.35;;;50.40;15.60;;;;;;6041209;23;20070;-69
2023/08/18 11:15:24;;;;;;;2.92;2.63;;;50.90;15.10;;;;;;6040536;23;20022;-68
2023/08/18 11:17:50;;;;;;;2.20;2.00;;;52.10;15.00;;;;;;6041053;23;20011;-68
2023/08/18 11:20:17;;;;;;;2.08;1.88;;;53.20;14.30;;;;;;6035571;23;20027;-69
2023/08/18 11:22:51;;;;;;;2.63;2.35;;;54.30;13.70;;;;;;6036506;23;20023;-68
2023/08/18 11:25:21;;;;;;;3.88;2.72;;;55.00;13.40;;;;;;6035940;23;20015;-68
2023/08/18 11:27:48;;;;;;;3.42;3.13;;;55.50;13.00;;;;;;6013187;23;20027;-68
2023/08/18 11:30:15;;;;;;;3.10;2.80;;;55.50;12.60;;;;;;6035672;23;20015;-69
2023/08/18 11:32:42;;;;;;;3.95;2.85;;;54.70;13.00;;;;;;6036227;23;20387;-68
2023/08/18 11:35:13;;;;;;;3.13;2.83;;;54.80;12.70;;;;;;6035773;23;20007;-69
2023/08/18 11:37:42;;;;;;;3.72;3.22;;;53.80;13.40;;;;;;6036252;23;20022;-69
2023/08/18 11:40:10;;;;;;;2.95;2.45;;;52.40;14.00;;;;;;6035537;23;20036;-70
2023/08/18 11:42:57;;;;;;;3.22;2.92;;;53.10;13.90;;;;;;6036195;23;20460;-69
2023/08/18 11:45:24;;;;;;;2.97;2.58;;;54.30;13.70;;;;;;6037520;23;20022;-68
2023/08/18 11:48:13;;;;;;;3.38;2.88;;;55.20;13.10;;;;;;6038077;23;20027;-68
2023/08/18 11:50:42;;;;;;;3.88;3.55;;;55.40;12.30;;;;;;6037036;23;20013;-68
2023/08/18 11:53:09;;;;;;;3.42;3.13;;;55.90;12.60;;;;;;6039290;23;20058;-69
2023/08/18 11:55:56;;;;;;;3.40;3.10;;;56.50;11.90;;;;;;6038730;23;20051;-69
2023/08/18 11:58:24;;;;;;;4.20;3.40;;;56.80;12.10;;;;;;6037998;23;20012;-68
2023/08/18 12:00:50;;;;;;;4.28;3.88;;;57.40;11.70;;;;;;6037285;23;20030;-69
2023/08/18 12:03:35;;;;;;;7.03;4.72;;;57.60;11.40;;;;;;6014019;23;20015;-68
2023/08/18 12:06:02;;;;;;;5.15;4.68;;;57.70;11.60;;;;;;6037193;23;20024;-69
2023/08/18 12:08:29;;;;;;;6.78;6.13;;;58.20;11.80;;;;;;6039140;23;20386;-68
2023/08/18 12:10:57;;;;;;;5.78;5.28;;;58.50;10.90;;;;;;6038629;23;20333;-69
2023/08/18 12:13:24;;;;;;;5.35;4.85;;;58.70;11.10;;;;;;6037567;23;20042;-68
2023/08/18 12:15:51;;;;;;;5.68;5.22;;;58.90;10.70;;;;;;6037319;23;20028;-69
2023/08/18 12:18:18;;;;;;;6.00;5.50;;;58.90;10.60;;;;;;6039166;23;20011;-69
2023/08/18 12:20:44;;;;;;;6.15;5.65;;;59.20;11.00;;;;;;6036693;23;20023;-69
2023/08/18 12:23:10;;;;;;;5.03;4.63;;;59.50;10.80;;;;;;6039555;23;20015;-68
2023/08/18 12:25:36;;;;;;;6.22;5.72;;;59.20;11.00;;;;;;6036877;23;20023;-69
2023/08/18 12:28:03;;;;;;;6.78;6.28;;;59.30;11.40;;;;;;6039034;23;20011;-69
2023/08/18 12:30:29;;;;;;;6.93;6.35;;;59.50;11.10;;;;;;6038510;23;20007;-69
2023/08/18 12:32:55;;;;;;;6.35;5.85;;;59.40;10.70;;;;;;6037604;23;20019;-68
2023/08/18 12:35:22;;;;;;;5.80;5.38;;;58.50;11.20;;;;;;6038442;23;20086;-68
2023/08/18 12:37:48;;;;;;;5.15;4.68;;;58.20;11.00;;;;;;6039542;23;20012;-69
2023/08/18 12:40:14;;;;;;;5.20;4.80;;;56.30;12.10;;;;;;6036948;23;20034;-69
2023/08/18 12:42:41;;;;;;;11.52;10.38;;;56.90;11.70;;;;;;6037474;23;20016;-68
2023/08/18 12:45:09;;;;;;;5.93;5.35;;;57.60;10.80;;;;;;6037141;23;20021;-68
2023/08/18 12:47:37;;;;;;;5.22;4.82;;;58.30;11.00;;;;;;6037530;23;20016;-69
2023/08/18 12:50:03;;;;;;;6.28;5.78;;;58.70;10.30;;;;;;6037098;23;20345;-69
2023/08/18 12:52:29;;;;;;;5.30;4.90;;;58.80;10.50;;;;;;6039136;23;20019;-69
2023/08/18 12:54:55;;;;;;;6.20;5.70;;;59.10;11.00;;;;;;6037113;23;20023;-69
2023/08/18 12:57:21;;;;;;;5.70;5.05;;;59.50;10.30;;;;;;6038535;23;20011;-69
2023/08/18 12:59:47;;;;;;;6.38;5.88;;;59.80;10.00;;;;;;6038807;23;20127;-67
2023/08/18 13:02:13;;;;;;;6.38;5.88;;;60.00;10.60;;;;;;6038676;23;20426;-69
2023/08/18 13:04:39;;;;;;;6.32;5.82;;;60.30;10.40;;;;;;6038673;23;20015;-69
2023/08/18 13:07:05;;;;;;;7.03;6.45;;;59.80;10.00;;;;;;6038158;23;20012;-67